sensor_id;sensor_type;location;lat;lon;timestamp;pressure;altitude;pressure_sealevel;temperature
18161;BMP280;9205;52.032;4.314;2023-06-10T00:00:19;101390.69;;;23.54
18161;BMP280;9205;52.032;4.314;2023-06-10T00:02:47;101395.78;;;23.56
18161;BMP280;9205;52.032;4.314;2023-06-10T00:05:15;101393.50;;;23.51
18161;BMP280;9205;52.032;4.314;2023-06-10T00:07:49;101400.44;;;23.51
18161;BMP280;9205;52.032;4.314;2023-06-10T00:10:21;101392.97;;;23.46
18161;BMP280;9205;52.032;4.314;2023-06-10T00:12:50;101395.78;;;23.43
18161;BMP280;9205;52.032;4.314;2023-06-10T00:15:18;101394.31;;;23.39
18161;BMP280;9205;52.032;4.314;2023-06-10T00:17:45;101400.00;;;23.32
18161;BMP280;9205;52.032;4.314;2023-06-10T00:20:13;101395.63;;;23.32
18161;BMP280;9205;52.032;4.314;2023-06-10T00:22:43;101402.38;;;23.35
18161;BMP280;9205;52.032;4.314;2023-06-10T00:25:15;101399.34;;;23.28
18161;BMP280;9205;52.032;4.314;2023-06-10T00:27:43;101398.34;;;23.31
18161;BMP280;9205;52.032;4.314;2023-06-10T00:30:11;101397.72;;;23.27
18161;BMP280;9205;52.032;4.314;2023-06-10T00:32:41;101404.94;;;23.22
18161;BMP280;9205;52.032;4.314;2023-06-10T00:35:09;101400.78;;;23.20
18161;BMP280;9205;52.032;4.314;2023-06-10T00:37:36;101398.47;;;23.15
18161;BMP280;9205;52.032;4.314;2023-06-10T00:40:05;101397.84;;;23.12
18161;BMP280;9205;52.032;4.314;2023-06-10T00:42:37;101401.19;;;23.14
18161;BMP280;9205;52.032;4.314;2023-06-10T00:45:06;101396.94;;;23.13
18161;BMP280;9205;52.032;4.314;2023-06-10T00:47:35;101398.34;;;23.04
18161;BMP280;9205;52.032;4.314;2023-06-10T00:50:05;101400.34;;;22.99
18161;BMP280;9205;52.032;4.314;2023-06-10T00:52:35;101398.56;;;22.88
18161;BMP280;9205;52.032;4.314;2023-06-10T00:55:05;101403.75;;;22.88
18161;BMP280;9205;52.032;4.314;2023-06-10T00:57:37;101394.19;;;22.88
18161;BMP280;9205;52.032;4.314;2023-06-10T01:00:07;101398.56;;;22.88
18161;BMP280;9205;52.032;4.314;2023-06-10T01:02:36;101401.22;;;22.86
18161;BMP280;9205;52.032;4.314;2023-06-10T01:05:05;101393.56;;;22.85
18161;BMP280;9205;52.032;4.314;2023-06-10T01:07:43;101399.03;;;22.80
18161;BMP280;9205;52.032;4.314;2023-06-10T01:10:20;101398.59;;;22.74
18161;BMP280;9205;52.032;4.314;2023-06-10T01:12:58;101394.22;;;22.74
18161;BMP280;9205;52.032;4.314;2023-06-10T01:15:30;101397.00;;;22.71
18161;BMP280;9205;52.032;4.314;2023-06-10T01:18:00;101392.78;;;22.70
18161;BMP280;9205;52.032;4.314;2023-06-10T01:20:31;101398.25;;;22.66
18161;BMP280;9205;52.032;4.314;2023-06-10T01:23:02;101403.41;;;22.66
18161;BMP280;9205;52.032;4.314;2023-06-10T01:25:31;101402.31;;;22.56
18161;BMP280;9205;52.032;4.314;2023-06-10T01:28:16;101401.56;;;22.54
18161;BMP280;9205;52.032;4.314;2023-06-10T01:30:55;101399.00;;;22.54
18161;BMP280;9205;52.032;4.314;2023-06-10T01:33:30;101396.50;;;22.52
18161;BMP280;9205;52.032;4.314;2023-06-10T01:36:01;101399.19;;;22.51
18161;BMP280;9205;52.032;4.314;2023-06-10T01:38:34;101401.03;;;22.49
18161;BMP280;9205;52.032;4.314;2023-06-10T01:41:04;101406.50;;;22.44
18161;BMP280;9205;52.032;4.314;2023-06-10T01:43:34;101397.88;;;22.44
18161;BMP280;9205;52.032;4.314;2023-06-10T01:46:01;101396.41;;;22.40
18161;BMP280;9205;52.032;4.314;2023-06-10T01:48:31;101399.13;;;22.38
18161;BMP280;9205;52.032;4.314;2023-06-10T01:50:59;101402.63;;;22.37
18161;BMP280;9205;52.032;4.314;2023-06-10T01:53:26;101395.78;;;22.36
18161;BMP280;9205;52.032;4.314;2023-06-10T01:55:56;101389.28;;;22.29
18161;BMP280;9205;52.032;4.314;2023-06-10T01:58:25;101399.81;;;22.26
18161;BMP280;9205;52.032;4.314;2023-06-10T02:00:53;101396.47;;;22.24
18161;BMP280;9205;52.032;4.314;2023-06-10T02:03:21;101401.56;;;22.26
18161;BMP280;9205;52.032;4.314;2023-06-10T02:05:49;101396.47;;;22.24
18161;BMP280;9205;52.032;4.314;2023-06-10T02:08:16;101404.16;;;22.26
18161;BMP280;9205;52.032;4.314;2023-06-10T02:10:44;101401.22;;;22.18
18161;BMP280;9205;52.032;4.314;2023-06-10T02:13:16;101399.63;;;22.15
18161;BMP280;9205;52.032;4.314;2023-06-10T02:15:44;101400.34;;;22.17
18161;BMP280;9205;52.032;4.314;2023-06-10T02:18:12;101401.59;;;22.12
18161;BMP280;9205;52.032;4.314;2023-06-10T02:20:40;101397.50;;;22.08
18161;BMP280;9205;52.032;4.314;2023-06-10T02:23:08;101409.78;;;22.05
18161;BMP280;9205;52.032;4.314;2023-06-10T02:25:36;101407.47;;;22.00
18161;BMP280;9205;52.032;4.314;2023-06-10T02:28:04;101404.06;;;22.00
18161;BMP280;9205;52.032;4.314;2023-06-10T02:30:34;101410.22;;;21.97
18161;BMP280;9205;52.032;4.314;2023-06-10T02:33:01;101396.19;;;21.87
18161;BMP280;9205;52.032;4.314;2023-06-10T02:35:29;101400.25;;;21.91
18161;BMP280;9205;52.032;4.314;2023-06-10T02:37:57;101401.38;;;21.87
18161;BMP280;9205;52.032;4.314;2023-06-10T02:40:28;101407.56;;;21.85
18161;BMP280;9205;52.032;4.314;2023-06-10T02:42:55;101410.56;;;21.77
18161;BMP280;9205;52.032;4.314;2023-06-10T02:45:24;101411.59;;;21.75
18161;BMP280;9205;52.032;4.314;2023-06-10T02:47:53;101418.34;;;21.77
18161;BMP280;9205;52.032;4.314;2023-06-10T02:50:21;101403.28;;;21.70
18161;BMP280;9205;52.032;4.314;2023-06-10T02:53:09;101411.22;;;21.67
18161;BMP280;9205;52.032;4.314;2023-06-10T02:55:41;101412.13;;;21.66
18161;BMP280;9205;52.032;4.314;2023-06-10T02:58:13;101413.03;;;21.65
18161;BMP280;9205;52.032;4.314;2023-06-10T03:00:43;101410.56;;;21.63
18161;BMP280;9205;52.032;4.314;2023-06-10T03:03:13;101411.84;;;21.56
18161;BMP280;9205;52.032;4.314;2023-06-10T03:05:54;101405.81;;;21.56
18161;BMP280;9205;52.032;4.314;2023-06-10T03:08:24;101420.63;;;21.52
18161;BMP280;9205;52.032;4.314;2023-06-10T03:10:52;101416.84;;;21.44
18161;BMP280;9205;52.032;4.314;2023-06-10T03:13:20;101412.31;;;21.47
18161;BMP280;9205;52.032;4.314;2023-06-10T03:15:48;101418.50;;;21.45
18161;BMP280;9205;52.032;4.314;2023-06-10T03:18:20;101426.50;;;21.40
18161;BMP280;9205;52.032;4.314;2023-06-10T03:20:50;101419.78;;;21.38
18161;BMP280;9205;52.032;4.314;2023-06-10T03:23:18;101425.66;;;21.40
18161;BMP280;9205;52.032;4.314;2023-06-10T03:25:47;101421.69;;;21.34
18161;BMP280;9205;52.032;4.314;2023-06-10T03:28:17;101424.28;;;21.34
18161;BMP280;9205;52.032;4.314;2023-06-10T03:30:44;101425.19;;;21.33
18161;BMP280;9205;52.032;4.314;2023-06-10T03:33:13;101423.53;;;21.32
18161;BMP280;9205;52.032;4.314;2023-06-10T03:35:43;101421.34;;;21.25
18161;BMP280;9205;52.032;4.314;2023-06-10T03:38:12;101431.78;;;21.24
18161;BMP280;9205;52.032;4.314;2023-06-10T03:40:40;101432.44;;;21.27
18161;BMP280;9205;52.032;4.314;2023-06-10T03:43:07;101430.72;;;21.27
18161;BMP280;9205;52.032;4.314;2023-06-10T03:45:36;101437.53;;;21.28
18161;BMP280;9205;52.032;4.314;2023-06-10T03:48:05;101439.19;;;21.29
18161;BMP280;9205;52.032;4.314;2023-06-10T03:50:44;101440.97;;;21.29
18161;BMP280;9205;52.032;4.314;2023-06-10T03:53:13;101441.31;;;21.23
18161;BMP280;9205;52.032;4.314;2023-06-10T03:55:43;101435.28;;;21.23
18161;BMP280;9205;52.032;4.314;2023-06-10T03:58:11;101440.66;;;21.20
18161;BMP280;9205;52.032;4.314;2023-06-10T04:00:41;101437.88;;;21.23
18161;BMP280;9205;52.032;4.314;2023-06-10T04:03:09;101443.03;;;21.23
18161;BMP280;9205;52.032;4.314;2023-06-10T04:05:46;101447.38;;;21.22
18161;BMP280;9205;52.032;4.314;2023-06-10T04:08:14;101444.16;;;21.19
18161;BMP280;9205;52.032;4.314;2023-06-10T04:10:42;101447.69;;;21.16
18161;BMP280;9205;52.032;4.314;2023-06-10T04:13:12;101445.22;;;21.15
18161;BMP280;9205;52.032;4.314;2023-06-10T04:15:48;101447.97;;;21.12
18161;BMP280;9205;52.032;4.314;2023-06-10T04:18:17;101441.88;;;21.13
18161;BMP280;9205;52.032;4.314;2023-06-10T04:20:48;101446.88;;;21.16
18161;BMP280;9205;52.032;4.314;2023-06-10T04:23:17;101451.91;;;21.19
18161;BMP280;9205;52.032;4.314;2023-06-10T04:25:46;101464.06;;;21.17
18161;BMP280;9205;52.032;4.314;2023-06-10T04:28:14;101453.88;;;21.14
18161;BMP280;9205;52.032;4.314;2023-06-10T04:30:43;101464.06;;;21.17
18161;BMP280;9205;52.032;4.314;2023-06-10T04:33:11;101457.22;;;21.16
18161;BMP280;9205;52.032;4.314;2023-06-10T04:35:40;101464.06;;;21.17
18161;BMP280;9205;52.032;4.314;2023-06-10T04:38:13;101460.91;;;21.12
18161;BMP280;9205;52.032;4.314;2023-06-10T04:40:41;101468.47;;;21.15
18161;BMP280;9205;52.032;4.314;2023-06-10T04:43:11;101466.63;;;21.17
18161;BMP280;9205;52.032;4.314;2023-06-10T04:45:39;101479.56;;;21.17
18161;BMP280;9205;52.032;4.314;2023-06-10T04:48:11;101479.56;;;21.17
18161;BMP280;9205;52.032;4.314;2023-06-10T04:50:40;101472.63;;;21.17
18161;BMP280;9205;52.032;4.314;2023-06-10T04:53:07;101474.38;;;21.17
18161;BMP280;9205;52.032;4.314;2023-06-10T04:55:38;101467.41;;;21.19
18161;BMP280;9205;52.032;4.314;2023-06-10T04:58:06;101470.69;;;21.21
18161;BMP280;9205;52.032;4.314;2023-06-10T05:00:34;101475.56;;;21.27
18161;BMP280;9205;52.032;4.314;2023-06-10T05:03:01;101467.97;;;21.24
18161;BMP280;9205;52.032;4.314;2023-06-10T05:05:29;101469.53;;;21.26
18161;BMP280;9205;52.032;4.314;2023-06-10T05:07:57;101467.88;;;21.25
18161;BMP280;9205;52.032;4.314;2023-06-10T05:10:25;101475.47;;;21.28
18161;BMP280;9205;52.032;4.314;2023-06-10T05:12:58;101472.63;;;21.32
18161;BMP280;9205;52.032;4.314;2023-06-10T05:15:27;101470.88;;;21.33
18161;BMP280;9205;52.032;4.314;2023-06-10T05:17:57;101467.22;;;21.37
18161;BMP280;9205;52.032;4.314;2023-06-10T05:20:25;101471.53;;;21.36
18161;BMP280;9205;52.032;4.314;2023-06-10T05:22:54;101465.28;;;21.40
18161;BMP280;9205;52.032;4.314;2023-06-10T05:25:22;101466.94;;;21.41
18161;BMP280;9205;52.032;4.314;2023-06-10T05:27:49;101468.78;;;21.39
18161;BMP280;9205;52.032;4.314;2023-06-10T05:30:18;101465.19;;;21.42
18161;BMP280;9205;52.032;4.314;2023-06-10T05:32:46;101464.09;;;21.46
18161;BMP280;9205;52.032;4.314;2023-06-10T05:35:14;101470.09;;;21.46
18161;BMP280;9205;52.032;4.314;2023-06-10T05:37:42;101467.16;;;21.52
18161;BMP280;9205;52.032;4.314;2023-06-10T05:40:11;101466.03;;;21.58
18161;BMP280;9205;52.032;4.314;2023-06-10T05:42:39;101473.53;;;21.62
18161;BMP280;9205;52.032;4.314;2023-06-10T05:45:08;101464.19;;;21.60
18161;BMP280;9205;52.032;4.314;2023-06-10T05:47:40;101470.19;;;21.60
18161;BMP280;9205;52.032;4.314;2023-06-10T05:50:09;101479.03;;;21.56
18161;BMP280;9205;52.032;4.314;2023-06-10T05:52:37;101480.16;;;21.66
18161;BMP280;9205;52.032;4.314;2023-06-10T05:55:12;101475.75;;;21.68
18161;BMP280;9205;52.032;4.314;2023-06-10T05:57:41;101477.50;;;21.68
18161;BMP280;9205;52.032;4.314;2023-06-10T06:00:11;101472.63;;;21.77
18161;BMP280;9205;52.032;4.314;2023-06-10T06:02:40;101472.75;;;21.76
18161;BMP280;9205;52.032;4.314;2023-06-10T06:05:09;101481.16;;;21.79
18161;BMP280;9205;52.032;4.314;2023-06-10T06:07:37;101467.75;;;21.87
18161;BMP280;9205;52.032;4.314;2023-06-10T06:10:08;101478.09;;;21.87
18161;BMP280;9205;52.032;4.314;2023-06-10T06:12:37;101474.53;;;21.89
18161;BMP280;9205;52.032;4.314;2023-06-10T06:15:06;101474.91;;;21.97
18161;BMP280;9205;52.032;4.314;2023-06-10T06:17:34;101480.00;;;21.99
18161;BMP280;9205;52.032;4.314;2023-06-10T06:20:09;101487.28;;;21.92
18161;BMP280;9205;52.032;4.314;2023-06-10T06:22:37;101483.50;;;21.98
18161;BMP280;9205;52.032;4.314;2023-06-10T06:25:07;101479.72;;;22.03
18161;BMP280;9205;52.032;4.314;2023-06-10T06:27:43;101480.28;;;22.08
18161;BMP280;9205;52.032;4.314;2023-06-10T06:30:15;101485.75;;;22.17
18161;BMP280;9205;52.032;4.314;2023-06-10T06:32:45;101483.63;;;22.24
18161;BMP280;9205;52.032;4.314;2023-06-10T06:35:15;101481.81;;;22.26
18161;BMP280;9205;52.032;4.314;2023-06-10T06:37:43;101488.47;;;22.30
18161;BMP280;9205;52.032;4.314;2023-06-10T06:40:23;101484.59;;;22.37
18161;BMP280;9205;52.032;4.314;2023-06-10T06:42:51;101493.13;;;22.39
18161;BMP280;9205;52.032;4.314;2023-06-10T06:45:33;101489.06;;;22.49
18161;BMP280;9205;52.032;4.314;2023-06-10T06:48:01;101482.97;;;22.50
18161;BMP280;9205;52.032;4.314;2023-06-10T06:50:32;101483.69;;;22.52
18161;BMP280;9205;52.032;4.314;2023-06-10T06:52:59;101487.22;;;22.65
18161;BMP280;9205;52.032;4.314;2023-06-10T06:55:27;101487.56;;;22.73
18161;BMP280;9205;52.032;4.314;2023-06-10T06:57:54;101480.53;;;22.75
18161;BMP280;9205;52.032;4.314;2023-06-10T07:00:22;101479.25;;;22.82
18161;BMP280;9205;52.032;4.314;2023-06-10T07:02:51;101486.63;;;22.88
18161;BMP280;9205;52.032;4.314;2023-06-10T07:05:19;101489.97;;;22.89
18161;BMP280;9205;52.032;4.314;2023-06-10T07:07:48;101492.44;;;22.91
18161;BMP280;9205;52.032;4.314;2023-06-10T07:10:21;101484.00;;;23.01
18161;BMP280;9205;52.032;4.314;2023-06-10T07:12:49;101490.03;;;23.16
18161;BMP280;9205;52.032;4.314;2023-06-10T07:15:18;101496.38;;;23.24
18161;BMP280;9205;52.032;4.314;2023-06-10T07:17:45;101483.88;;;23.31
18161;BMP280;9205;52.032;4.314;2023-06-10T07:20:14;101492.72;;;23.41
18161;BMP280;9205;52.032;4.314;2023-06-10T07:22:42;101484.63;;;23.45
18161;BMP280;9205;52.032;4.314;2023-06-10T07:25:11;101495.28;;;23.55
18161;BMP280;9205;52.032;4.314;2023-06-10T07:27:39;101495.59;;;23.63
18161;BMP280;9205;52.032;4.314;2023-06-10T07:30:08;101484.72;;;23.70
18161;BMP280;9205;52.032;4.314;2023-06-10T07:32:37;101490.28;;;23.78
18161;BMP280;9205;52.032;4.314;2023-06-10T07:35:08;101482.06;;;23.84
18161;BMP280;9205;52.032;4.314;2023-06-10T07:37:36;101482.31;;;23.93
18161;BMP280;9205;52.032;4.314;2023-06-10T07:40:05;101486.06;;;24.02
18161;BMP280;9205;52.032;4.314;2023-06-10T07:42:36;101486.78;;;24.04
18161;BMP280;9205;52.032;4.314;2023-06-10T07:45:06;101494.16;;;24.10
18161;BMP280;9205;52.032;4.314;2023-06-10T07:47:35;101489.19;;;24.19
18161;BMP280;9205;52.032;4.314;2023-06-10T07:50:05;101490.13;;;24.31
18161;BMP280;9205;52.032;4.314;2023-06-10T07:52:40;101488.41;;;24.44
18161;BMP280;9205;52.032;4.314;2023-06-10T07:55:08;101486.50;;;24.46
18161;BMP280;9205;52.032;4.314;2023-06-10T07:57:40;101490.16;;;24.55
18161;BMP280;9205;52.032;4.314;2023-06-10T08:00:09;101488.59;;;24.65
18161;BMP280;9205;52.032;4.314;2023-06-10T08:02:39;101480.16;;;24.74
18161;BMP280;9205;52.032;4.314;2023-06-10T08:05:07;101490.59;;;24.85
18161;BMP280;9205;52.032;4.314;2023-06-10T08:07:37;101493.38;;;24.95
18161;BMP280;9205;52.032;4.314;2023-06-10T08:10:08;101501.41;;;24.92
18161;BMP280;9205;52.032;4.314;2023-06-10T08:12:40;101496.19;;;25.04
18161;BMP280;9205;52.032;4.314;2023-06-10T08:15:10;101498.78;;;25.17
18161;BMP280;9205;52.032;4.314;2023-06-10T08:17:39;101498.22;;;25.24
18161;BMP280;9205;52.032;4.314;2023-06-10T08:20:08;101491.03;;;25.28
18161;BMP280;9205;52.032;4.314;2023-06-10T08:22:36;101494.03;;;25.34
18161;BMP280;9205;52.032;4.314;2023-06-10T08:25:07;101500.44;;;25.41
18161;BMP280;9205;52.032;4.314;2023-06-10T08:27:35;101503.31;;;25.49
18161;BMP280;9205;52.032;4.314;2023-06-10T08:30:08;101498.25;;;25.58
18161;BMP280;9205;52.032;4.314;2023-06-10T08:32:39;101502.69;;;25.69
18161;BMP280;9205;52.032;4.314;2023-06-10T08:35:07;101493.22;;;25.68
18161;BMP280;9205;52.032;4.314;2023-06-10T08:37:40;101499.69;;;25.75
18161;BMP280;9205;52.032;4.314;2023-06-10T08:40:11;101497.56;;;25.80
18161;BMP280;9205;52.032;4.314;2023-06-10T08:42:46;101500.44;;;25.88
18161;BMP280;9205;52.032;4.314;2023-06-10T08:45:22;101497.63;;;26.02
18161;BMP280;9205;52.032;4.314;2023-06-10T08:47:55;101502.13;;;26.11
18161;BMP280;9205;52.032;4.314;2023-06-10T08:50:37;101498.94;;;26.18
18161;BMP280;9205;52.032;4.314;2023-06-10T08:53:07;101502.41;;;26.29
18161;BMP280;9205;52.032;4.314;2023-06-10T08:55:40;101498.66;;;26.44
18161;BMP280;9205;52.032;4.314;2023-06-10T08:58:09;101497.72;;;26.45
18161;BMP280;9205;52.032;4.314;2023-06-10T09:00:43;101499.59;;;26.54
18161;BMP280;9205;52.032;4.314;2023-06-10T09:03:12;101507.69;;;26.51
18161;BMP280;9205;52.032;4.314;2023-06-10T09:05:41;101506.34;;;26.57
18161;BMP280;9205;52.032;4.314;2023-06-10T09:08:11;101494.63;;;26.62
18161;BMP280;9205;52.032;4.314;2023-06-10T09:10:44;101493.22;;;26.69
18161;BMP280;9205;52.032;4.314;2023-06-10T09:13:13;101496.28;;;26.85
18161;BMP280;9205;52.032;4.314;2023-06-10T09:15:46;101497.00;;;26.98
18161;BMP280;9205;52.032;4.314;2023-06-10T09:18:15;101497.47;;;27.03
18161;BMP280;9205;52.032;4.314;2023-06-10T09:20:44;101502.66;;;27.14
18161;BMP280;9205;52.032;4.314;2023-06-10T09:23:13;101503.84;;;27.21
18161;BMP280;9205;52.032;4.314;2023-06-10T09:25:56;101502.28;;;27.29
18161;BMP280;9205;52.032;4.314;2023-06-10T09:28:25;101494.91;;;27.34
18161;BMP280;9205;52.032;4.314;2023-06-10T09:31:06;101494.63;;;27.48
18161;BMP280;9205;52.032;4.314;2023-06-10T09:33:40;101500.91;;;27.46
18161;BMP280;9205;52.032;4.314;2023-06-10T09:36:11;101507.34;;;27.42
18161;BMP280;9205;52.032;4.314;2023-06-10T09:38:41;101501.63;;;27.48
18161;BMP280;9205;52.032;4.314;2023-06-10T09:41:17;101505.50;;;27.53
18161;BMP280;9205;52.032;4.314;2023-06-10T09:43:48;101503.16;;;27.61
18161;BMP280;9205;52.032;4.314;2023-06-10T09:46:19;101492.56;;;27.63
18161;BMP280;9205;52.032;4.314;2023-06-10T09:48:49;101499.66;;;27.72
18161;BMP280;9205;52.032;4.314;2023-06-10T09:51:19;101501.25;;;27.83
18161;BMP280;9205;52.032;4.314;2023-06-10T09:53:48;101497.69;;;27.84
18161;BMP280;9205;52.032;4.314;2023-06-10T09:56:18;101498.16;;;27.89
18161;BMP280;9205;52.032;4.314;2023-06-10T09:58:53;101495.97;;;27.94
18161;BMP280;9205;52.032;4.314;2023-06-10T10:01:36;101485.91;;;28.10
18161;BMP280;9205;52.032;4.314;2023-06-10T10:04:06;101494.94;;;28.06
18161;BMP280;9205;52.032;4.314;2023-06-10T10:06:35;101491.66;;;28.04
18161;BMP280;9205;52.032;4.314;2023-06-10T10:09:06;101494.72;;;28.19
18161;BMP280;9205;52.032;4.314;2023-06-10T10:11:35;101492.63;;;28.24
18161;BMP280;9205;52.032;4.314;2023-06-10T10:14:04;101494.84;;;28.28
18161;BMP280;9205;52.032;4.314;2023-06-10T10:16:37;101492.28;;;28.38
18161;BMP280;9205;52.032;4.314;2023-06-10T10:19:23;101496.59;;;28.48
18161;BMP280;9205;52.032;4.314;2023-06-10T10:21:59;101487.53;;;28.52
18161;BMP280;9205;52.032;4.314;2023-06-10T10:24:39;101484.28;;;28.69
18161;BMP280;9205;52.032;4.314;2023-06-10T10:27:20;101477.84;;;28.73
18161;BMP280;9205;52.032;4.314;2023-06-10T10:29:54;101483.63;;;28.76
18161;BMP280;9205;52.032;4.314;2023-06-10T10:32:33;101471.00;;;28.81
18161;BMP280;9205;52.032;4.314;2023-06-10T10:35:12;101476.53;;;28.88
18161;BMP280;9205;52.032;4.314;2023-06-10T10:37:49;101472.25;;;28.87
18161;BMP280;9205;52.032;4.314;2023-06-10T10:40:24;101478.91;;;29.10
18161;BMP280;9205;52.032;4.314;2023-06-10T10:43:04;101480.44;;;29.12
18161;BMP280;9205;52.032;4.314;2023-06-10T10:45:34;101481.81;;;29.26
18161;BMP280;9205;52.032;4.314;2023-06-10T10:48:15;101473.34;;;29.42
18161;BMP280;9205;52.032;4.314;2023-06-10T10:51:07;101466.00;;;29.84
18161;BMP280;9205;52.032;4.314;2023-06-10T10:54:17;101459.66;;;29.86
18161;BMP280;9205;52.032;4.314;2023-06-10T10:57:13;101476.72;;;30.09
18161;BMP280;9205;52.032;4.314;2023-06-10T10:59:56;101464.03;;;30.60
18161;BMP280;9205;52.032;4.314;2023-06-10T11:02:50;101469.47;;;31.72
18161;BMP280;9205;52.032;4.314;2023-06-10T11:06:02;101465.88;;;32.49
18161;BMP280;9205;52.032;4.314;2023-06-10T11:08:59;101468.22;;;32.60
18161;BMP280;9205;52.032;4.314;2023-06-10T11:11:49;101468.50;;;32.90
18161;BMP280;9205;52.032;4.314;2023-06-10T11:14:55;101469.81;;;32.94
18161;BMP280;9205;52.032;4.314;2023-06-10T11:17:32;101456.31;;;32.81
18161;BMP280;9205;52.032;4.314;2023-06-10T11:20:03;101462.81;;;32.62
18161;BMP280;9205;52.032;4.314;2023-06-10T11:22:59;101459.56;;;32.42
18161;BMP280;9205;52.032;4.314;2023-06-10T11:25:40;101453.13;;;32.29
18161;BMP280;9205;52.032;4.314;2023-06-10T11:28:18;101461.25;;;32.18
18161;BMP280;9205;52.032;4.314;2023-06-10T11:31:03;101452.94;;;32.05
18161;BMP280;9205;52.032;4.314;2023-06-10T11:33:34;101454.69;;;31.96
18161;BMP280;9205;52.032;4.314;2023-06-10T11:36:07;101451.03;;;32.07
18161;BMP280;9205;52.032;4.314;2023-06-10T11:38:37;101449.72;;;32.11
18161;BMP280;9205;52.032;4.314;2023-06-10T11:41:12;101444.78;;;32.08
18161;BMP280;9205;52.032;4.314;2023-06-10T11:43:45;101445.06;;;32.05
18161;BMP280;9205;52.032;4.314;2023-06-10T11:46:15;101435.66;;;32.20
18161;BMP280;9205;52.032;4.314;2023-06-10T11:49:08;101433.59;;;32.39
18161;BMP280;9205;52.032;4.314;2023-06-10T11:51:41;101435.56;;;32.37
18161;BMP280;9205;52.032;4.314;2023-06-10T11:54:17;101427.53;;;32.47
18161;BMP280;9205;52.032;4.314;2023-06-10T11:56:57;101428.53;;;32.46
18161;BMP280;9205;52.032;4.314;2023-06-10T11:59:32;101424.81;;;32.56
18161;BMP280;9205;52.032;4.314;2023-06-10T12:02:00;101431.16;;;32.79
18161;BMP280;9205;52.032;4.314;2023-06-10T12:04:29;101419.66;;;32.88
18161;BMP280;9205;52.032;4.314;2023-06-10T12:06:57;101420.47;;;32.88
18161;BMP280;9205;52.032;4.314;2023-06-10T12:09:29;101421.19;;;33.06
18161;BMP280;9205;52.032;4.314;2023-06-10T12:12:01;101424.66;;;33.23
18161;BMP280;9205;52.032;4.314;2023-06-10T12:14:52;101413.13;;;33.08
18161;BMP280;9205;52.032;4.314;2023-06-10T12:17:35;101428.94;;;33.16
18161;BMP280;9205;52.032;4.314;2023-06-10T12:20:26;101420.22;;;33.23
18161;BMP280;9205;52.032;4.314;2023-06-10T12:22:54;101415.47;;;33.11
18161;BMP280;9205;52.032;4.314;2023-06-10T12:25:35;101412.00;;;33.34
18161;BMP280;9205;52.032;4.314;2023-06-10T12:28:09;101407.72;;;33.49
18161;BMP280;9205;52.032;4.314;2023-06-10T12:30:37;101421.72;;;33.57
18161;BMP280;9205;52.032;4.314;2023-06-10T12:33:16;101411.31;;;33.56
18161;BMP280;9205;52.032;4.314;2023-06-10T12:35:51;101411.69;;;33.45
18161;BMP280;9205;52.032;4.314;2023-06-10T12:38:24;101415.78;;;33.40
18161;BMP280;9205;52.032;4.314;2023-06-10T12:41:10;101409.03;;;33.53
18161;BMP280;9205;52.032;4.314;2023-06-10T12:43:41;101424.00;;;33.52
18161;BMP280;9205;52.032;4.314;2023-06-10T12:46:10;101413.97;;;33.48
18161;BMP280;9205;52.032;4.314;2023-06-10T12:48:50;101407.72;;;33.49
18161;BMP280;9205;52.032;4.314;2023-06-10T12:51:29;101415.28;;;33.52
18161;BMP280;9205;52.032;4.314;2023-06-10T12:54:00;101413.63;;;33.51
18161;BMP280;9205;52.032;4.314;2023-06-10T12:56:38;101412.50;;;33.38
18161;BMP280;9205;52.032;4.314;2023-06-10T12:59:07;101402.44;;;33.49
18161;BMP280;9205;52.032;4.314;2023-06-10T13:01:34;101404.75;;;33.52
18161;BMP280;9205;52.032;4.314;2023-06-10T13:04:05;101400.16;;;33.62
18161;BMP280;9205;52.032;4.314;2023-06-10T13:06:34;101402.94;;;33.76
18161;BMP280;9205;52.032;4.314;2023-06-10T13:09:06;101397.47;;;33.78
18161;BMP280;9205;52.032;4.314;2023-06-10T13:11:42;101402.91;;;33.84
18161;BMP280;9205;52.032;4.314;2023-06-10T13:14:13;101390.22;;;33.88
18161;BMP280;9205;52.032;4.314;2023-06-10T13:16:42;101387.09;;;33.84
18161;BMP280;9205;52.032;4.314;2023-06-10T13:19:16;101387.53;;;34.04
18161;BMP280;9205;52.032;4.314;2023-06-10T13:21:44;101392.81;;;34.04
18161;BMP280;9205;52.032;4.314;2023-06-10T13:24:14;101383.59;;;34.08
18161;BMP280;9205;52.032;4.314;2023-06-10T13:26:45;101386.38;;;34.14
18161;BMP280;9205;52.032;4.314;2023-06-10T13:29:12;101387.47;;;34.28
18161;BMP280;9205;52.032;4.314;2023-06-10T13:31:40;101377.66;;;34.14
18161;BMP280;9205;52.032;4.314;2023-06-10T13:34:11;101379.56;;;34.28
18161;BMP280;9205;52.032;4.314;2023-06-10T13:36:40;101379.75;;;34.26
18161;BMP280;9205;52.032;4.314;2023-06-10T13:39:12;101388.75;;;34.31
18161;BMP280;9205;52.032;4.314;2023-06-10T13:41:41;101369.09;;;34.12
18161;BMP280;9205;52.032;4.314;2023-06-10T13:44:24;101367.78;;;34.08
18161;BMP280;9205;52.032;4.314;2023-06-10T13:47:05;101369.22;;;34.26
18161;BMP280;9205;52.032;4.314;2023-06-10T13:49:34;101375.22;;;34.42
18161;BMP280;9205;52.032;4.314;2023-06-10T13:52:06;101372.94;;;34.31
18161;BMP280;9205;52.032;4.314;2023-06-10T13:54:36;101360.72;;;34.38
18161;BMP280;9205;52.032;4.314;2023-06-10T13:57:05;101356.69;;;34.50
18161;BMP280;9205;52.032;4.314;2023-06-10T13:59:55;101361.38;;;34.40
18161;BMP280;9205;52.032;4.314;2023-06-10T14:02:25;101362.63;;;34.60
18161;BMP280;9205;52.032;4.314;2023-06-10T14:05:00;101364.25;;;34.61
18161;BMP280;9205;52.032;4.314;2023-06-10T14:07:34;101362.06;;;34.34
18161;BMP280;9205;52.032;4.314;2023-06-10T14:10:05;101364.44;;;34.52
18161;BMP280;9205;52.032;4.314;2023-06-10T14:12:37;101355.09;;;34.41
18161;BMP280;9205;52.032;4.314;2023-06-10T14:15:08;101365.34;;;34.36
18161;BMP280;9205;52.032;4.314;2023-06-10T14:17:40;101351.28;;;34.44
18161;BMP280;9205;52.032;4.314;2023-06-10T14:20:11;101363.00;;;34.41
18161;BMP280;9205;52.032;4.314;2023-06-10T14:22:55;101360.34;;;34.49
18161;BMP280;9205;52.032;4.314;2023-06-10T14:25:34;101356.03;;;34.56
18161;BMP280;9205;52.032;4.314;2023-06-10T14:28:22;101352.47;;;34.41
18161;BMP280;9205;52.032;4.314;2023-06-10T14:30:55;101355.22;;;34.56
18161;BMP280;9205;52.032;4.314;2023-06-10T14:33:40;101366.59;;;34.56
18161;BMP280;9205;52.032;4.314;2023-06-10T14:36:10;101365.84;;;34.40